Time;durP1;ratioP1;P1;durP2;ratioP2;P2;SDS_P1;SDS_P2;PMS_P1;PMS_P2;Temp;Humidity;BMP_temperature;BMP_pressure;BME280_temperature;BME280_humidity;BME280_pressure;Samples;Min_cycle;Max_cycle;Signal;HPM_P1;HPM_P2
2022/07/08 00:00:53;;;;;;;4.57;0.60;;;;;;;23.15;50.58;99563.19;5072021;28;20435;-67
2022/07/08 00:03:18;;;;;;;1.50;0.70;;;;;;;23.17;50.76;99560.28;5070698;28;20036;-66
2022/07/08 00:05:44;;;;;;;2.28;0.63;;;;;;;23.15;50.83;99563.19;5071952;28;20037;-66
2022/07/08 00:08:10;;;;;;;1.15;0.57;;;;;;;23.16;50.86;99558.63;5070895;28;20506;-67
2022/07/08 00:10:36;;;;;;;2.83;0.60;;;;;;;23.19;50.90;99562.78;5070933;28;20043;-66
2022/07/08 00:13:01;;;;;;;1.98;0.77;;;;;;;23.24;50.83;99555.75;5072184;28;20488;-67
2022/07/08 00:15:27;;;;;;;1.10;0.57;;;;;;;23.40;50.42;99554.56;5075299;28;20039;-64
2022/07/08 00:17:52;;;;;;;0.90;0.50;;;;;;;23.52;50.30;99559.34;5075734;28;20055;-64
2022/07/08 00:20:18;;;;;;;0.80;0.50;;;;;;;23.53;50.21;99561.03;5059183;28;20037;-65
2022/07/08 00:22:43;;;;;;;0.90;0.60;;;;;;;23.49;50.20;99559.75;5067970;28;20115;-68
2022/07/08 00:25:09;;;;;;;1.55;0.60;;;;;;;23.41;50.48;99555.38;5075984;28;20085;-67
2022/07/08 00:27:35;;;;;;;0.70;0.60;;;;;;;23.34;50.28;99554.56;5075675;28;20479;-64
2022/07/08 00:30:00;;;;;;;0.88;0.43;;;;;;;23.31;50.60;99550.38;5075895;28;20036;-66
2022/07/08 00:32:26;;;;;;;1.73;0.70;;;;;;;23.35;50.99;99546.25;5075326;28;20028;-67
2022/07/08 00:34:51;;;;;;;1.52;0.80;;;;;;;23.44;50.34;99550.44;5075717;28;20032;-67
2022/07/08 00:37:18;;;;;;;2.28;0.65;;;;;;;23.42;50.27;99539.00;5073803;28;20048;-67
2022/07/08 00:39:43;;;;;;;1.90;0.70;;;;;;;23.49;50.23;99544.41;5067378;28;20487;-67
2022/07/08 00:42:08;;;;;;;1.08;0.60;;;;;;;23.51;50.12;99544.19;5075278;28;20115;-65
2022/07/08 00:44:34;;;;;;;0.80;0.60;;;;;;;23.57;50.00;99546.91;5061275;28;20038;-64
2022/07/08 00:46:59;;;;;;;1.00;0.60;;;;;;;23.55;49.69;99548.97;5072032;28;20128;-65
2022/07/08 00:49:25;;;;;;;6.28;0.63;;;;;;;23.51;49.78;99552.28;5074637;28;20507;-66
2022/07/08 00:51:51;;;;;;;0.93;0.55;;;;;;;23.33;50.00;99548.31;5075093;28;20040;-66
2022/07/08 00:54:20;;;;;;;4.00;0.77;;;;;;;23.36;49.61;99547.91;5074917;28;20039;-67
2022/07/08 00:56:46;;;;;;;2.63;0.77;;;;;;;23.29;49.84;99547.06;5074854;28;20028;-65
2022/07/08 00:59:12;;;;;;;1.63;0.60;;;;;;;23.13;50.16;99543.69;5074466;28;20461;-67
2022/07/08 01:01:38;;;;;;;3.55;0.75;;;;;;;23.06;50.19;99550.09;5074972;28;20040;-65
2022/07/08 01:04:04;;;;;;;1.70;0.80;;;;;;;23.14;50.16;99549.88;5075595;28;20036;-66
2022/07/08 01:06:30;;;;;;;3.83;0.65;;;;;;;23.10;50.18;99541.38;5075407;28;20036;-67
2022/07/08 01:08:55;;;;;;;3.53;1.00;;;;;;;22.95;50.35;99555.00;5074609;28;20028;-65
2022/07/08 01:11:21;;;;;;;0.93;0.70;;;;;;;22.76;50.78;99548.50;5056975;28;20041;-65
2022/07/08 01:13:47;;;;;;;5.65;1.38;;;;;;;22.77;51.21;99560.97;5055123;28;20044;-69
2022/07/08 01:16:13;;;;;;;1.60;0.60;;;;;;;22.98;51.10;99553.78;5054774;28;20029;-66
2022/07/08 01:18:40;;;;;;;3.10;1.13;;;;;;;23.21;50.45;99558.88;5072874;28;20076;-67
2022/07/08 01:21:07;;;;;;;3.42;0.70;;;;;;;23.35;50.54;99556.22;5074481;28;20537;-67
2022/07/08 01:23:33;;;;;;;1.77;0.70;;;;;;;23.45;50.23;99562.88;5074590;28;20407;-65
2022/07/08 01:26:00;;;;;;;1.38;0.70;;;;;;;23.51;50.03;99563.09;5073560;28;20462;-66
2022/07/08 01:28:26;;;;;;;1.02;0.50;;;;;;;23.53;49.77;99559.13;5074716;28;20024;-67
2022/07/08 01:30:51;;;;;;;5.57;0.60;;;;;;;23.53;50.13;99561.03;5075001;28;20043;-68
2022/07/08 01:33:17;;;;;;;2.80;1.30;;;;;;;23.55;49.89;99562.47;5074491;28;20115;-66
2022/07/08 01:35:43;;;;;;;1.58;0.70;;;;;;;23.42;49.97;99566.00;5059556;28;20032;-65
2022/07/08 01:38:09;;;;;;;0.88;0.55;;;;;;;23.35;50.32;99561.63;5073073;28;20107;-66
2022/07/08 01:40:35;;;;;;;2.67;0.75;;;;;;;23.31;49.90;99561.16;5074482;28;20503;-67
2022/07/08 01:43:00;;;;;;;0.90;0.68;;;;;;;23.21;50.28;99566.97;5073931;28;20024;-67
2022/07/08 01:45:25;;;;;;;1.23;0.50;;;;;;;23.17;50.16;99576.47;5074274;28;20158;-66
2022/07/08 01:47:51;;;;;;;3.45;0.50;;;;;;;23.17;50.07;99574.59;5074411;28;20028;-67
2022/07/08 01:50:16;;;;;;;0.70;0.52;;;;;;;23.12;50.43;99579.78;5074118;28;20036;-65
2022/07/08 01:52:42;;;;;;;3.15;0.85;;;;;;;23.18;50.04;99583.53;5073882;28;20032;-66
2022/07/08 01:55:07;;;;;;;2.33;0.50;;;;;;;23.19;50.35;99582.50;5074390;28;20404;-64
2022/07/08 01:57:34;;;;;;;0.95;0.43;;;;;;;23.23;50.30;99580.25;5074179;28;20498;-63
2022/07/08 02:00:00;;;;;;;1.35;0.70;;;;;;;23.27;49.87;99578.84;5074225;28;20028;-63
2022/07/08 02:02:25;;;;;;;2.50;1.00;;;;;;;23.23;50.20;99582.97;5074106;28;20055;-64
2022/07/08 02:04:51;;;;;;;2.22;0.70;;;;;;;23.20;49.98;99572.53;5073867;28;20032;-63
2022/07/08 02:07:19;;;;;;;1.10;0.50;;;;;;;23.09;50.09;99580.19;5073979;28;20058;-66
2022/07/08 02:09:45;;;;;;;4.00;0.70;;;;;;;23.08;50.31;99575.00;5074318;28;20415;-65
2022/07/08 02:12:20;;;;;;;2.30;0.43;;;;;;;23.08;50.54;99562.34;5073679;28;20082;-65
2022/07/08 02:14:53;;;;;;;3.95;0.75;;;;;;;23.12;50.49;99573.56;5074124;28;20505;-66
2022/07/08 02:17:21;;;;;;;1.33;0.63;;;;;;;23.19;50.31;99563.63;5073893;28;20079;-66
2022/07/08 02:19:47;;;;;;;3.20;0.80;;;;;;;23.20;49.87;99575.22;5073494;28;20056;-68
2022/07/08 02:22:13;;;;;;;1.77;0.70;;;;;;;23.11;50.16;99570.03;5073514;28;20078;-66
2022/07/08 02:24:38;;;;;;;1.42;0.50;;;;;;;23.21;49.89;99577.78;5073173;28;20535;-65
2022/07/08 02:27:05;;;;;;;1.60;0.65;;;;;;;23.33;49.58;99579.88;5073636;28;20111;-66
2022/07/08 02:29:31;;;;;;;2.05;0.50;;;;;;;23.36;49.88;99583.00;5073653;28;20395;-66
2022/07/08 02:31:57;;;;;;;1.27;0.68;;;;;;;23.45;49.70;99589.03;5073277;28;20040;-68
2022/07/08 02:34:23;;;;;;;0.82;0.50;;;;;;;23.42;49.17;99595.69;5073416;28;20040;-67
2022/07/08 02:36:48;;;;;;;1.30;0.80;;;;;;;23.33;49.42;99591.50;5072733;28;20501;-67
2022/07/08 02:39:14;;;;;;;2.78;1.20;;;;;;;23.16;49.82;99589.13;5073219;28;20041;-66
2022/07/08 02:41:40;;;;;;;1.45;0.70;;;;;;;23.17;49.63;99593.50;5072907;28;20038;-66
2022/07/08 02:44:09;;;;;;;3.28;0.82;;;;;;;23.11;49.85;99598.88;5073339;28;20052;-67
2022/07/08 02:46:35;;;;;;;1.92;0.60;;;;;;;23.08;50.32;99600.13;5072637;28;20089;-66
2022/07/08 02:49:00;;;;;;;1.17;0.57;;;;;;;23.03;49.91;99602.56;5073151;28;20119;-66
2022/07/08 02:51:26;;;;;;;1.27;0.80;;;;;;;23.01;50.14;99604.66;5073194;28;20111;-64
2022/07/08 02:53:52;;;;;;;3.63;0.90;;;;;;;23.10;49.80;99608.00;5073008;28;20118;-66
2022/07/08 02:56:18;;;;;;;3.08;0.80;;;;;;;23.15;49.87;99613.63;5073146;28;20028;-66
2022/07/08 02:58:43;;;;;;;3.42;0.90;;;;;;;23.19;49.69;99614.06;5072823;28;20025;-66
2022/07/08 03:01:09;;;;;;;1.90;0.65;;;;;;;23.10;49.98;99619.63;5072674;28;20407;-67
2022/07/08 03:03:34;;;;;;;3.53;0.80;;;;;;;22.96;50.46;99615.22;5073344;28;20369;-67
2022/07/08 03:06:00;;;;;;;4.30;0.93;;;;;;;23.03;50.33;99624.16;5072967;28;20036;-65
2022/07/08 03:08:25;;;;;;;2.05;0.70;;;;;;;23.05;50.39;99627.50;5072449;28;20111;-66
2022/07/08 03:10:51;;;;;;;3.78;0.93;;;;;;;23.08;50.14;99632.50;5072811;28;20470;-67
2022/07/08 03:13:16;;;;;;;1.17;0.70;;;;;;;23.17;50.08;99633.16;5072589;28;20032;-66
2022/07/08 03:15:42;;;;;;;2.40;0.63;;;;;;;23.13;50.12;99630.03;5072881;28;20032;-66
2022/07/08 03:18:08;;;;;;;1.38;0.50;;;;;;;23.09;50.23;99627.91;5072097;28;20142;-66
2022/07/08 03:20:33;;;;;;;1.95;1.00;;;;;;;23.09;50.17;99631.47;5072635;28;20070;-65
2022/07/08 03:22:59;;;;;;;1.95;0.70;;;;;;;23.04;50.03;99639.31;5072027;28;20033;-66
2022/07/08 03:25:25;;;;;;;2.67;0.60;;;;;;;23.02;49.91;99647.63;5072456;28;20078;-66
2022/07/08 03:27:50;;;;;;;2.88;0.90;;;;;;;22.91;50.55;99648.19;5072528;28;20032;-65
2022/07/08 03:30:16;;;;;;;1.38;0.70;;;;;;;22.88;50.41;99648.59;5072375;28;20420;-68
2022/07/08 03:32:41;;;;;;;3.40;1.10;;;;;;;22.78;50.84;99645.44;5072038;28;20067;-65
2022/07/08 03:35:07;;;;;;;3.67;0.82;;;;;;;22.64;51.08;99655.28;5062537;28;20040;-65
2022/07/08 03:37:33;;;;;;;8.15;1.42;;;;;;;22.71;51.00;99667.78;5057977;28;20032;-66
2022/07/08 03:41:19;;;;;;;1.55;0.85;;;;;;;22.76;50.83;99663.66;5072543;28;20045;-67
2022/07/08 03:42:44;;;;;;;1.40;0.65;;;;;;;22.93;50.78;99658.78;5072201;28;20063;-67
2022/07/08 03:45:10;;;;;;;5.40;1.58;;;;;;;23.02;50.43;99657.56;5072054;28;20059;-66
2022/07/08 03:47:35;;;;;;;3.90;1.20;;;;;;;22.89;50.50;99660.19;5072150;28;20037;-65
2022/07/08 03:50:01;;;;;;;1.98;0.60;;;;;;;22.92;50.72;99660.66;5074917;28;20036;-67
2022/07/08 03:52:27;;;;;;;3.65;0.82;;;;;;;23.08;50.44;99654.09;5076256;28;20032;-66
2022/07/08 03:54:52;;;;;;;1.67;1.42;;;;;;;23.19;50.08;99659.94;5076225;28;20066;-65
2022/07/08 03:57:18;;;;;;;2.95;1.23;;;;;;;23.12;50.34;99659.91;5076405;28;20032;-66
2022/07/08 03:59:43;;;;;;;4.60;1.30;;;;;;;23.03;50.56;99661.94;5076488;28;20564;-65
2022/07/08 04:02:09;;;;;;;3.30;1.88;;;;;;;22.85;50.84;99655.22;5076181;28;20028;-65
2022/07/08 04:04:34;;;;;;;4.78;1.60;;;;;;;22.65;51.02;99671.25;5076111;28;20087;-66
2022/07/08 04:06:59;;;;;;;6.72;1.70;;;;;;;22.48;51.55;99661.81;5076089;28;20032;-66
2022/07/08 04:09:25;;;;;;;2.63;1.55;;;;;;;22.38;51.52;99671.03;5076321;28;20119;-66
2022/07/08 04:11:50;;;;;;;2.22;1.48;;;;;;;22.55;51.51;99668.94;5076052;28;20040;-65
2022/07/08 04:14:16;;;;;;;6.63;1.23;;;;;;;22.72;51.32;99668.59;5076779;28;20028;-66
2022/07/08 04:16:42;;;;;;;2.65;1.33;;;;;;;22.83;51.12;99668.06;5075649;28;20032;-66
2022/07/08 04:19:07;;;;;;;2.13;1.08;;;;;;;22.90;50.83;99657.31;5075862;28;20056;-65
2022/07/08 04:21:33;;;;;;;4.22;2.08;;;;;;;23.06;50.28;99664.25;5076073;28;20078;-65
2022/07/08 04:23:59;;;;;;;3.85;1.65;;;;;;;23.23;50.48;99675.59;5076213;28;20032;-67
2022/07/08 04:26:31;;;;;;;2.42;1.58;;;;;;;23.29;50.55;99671.25;5075597;28;20033;-64
2022/07/08 04:28:57;;;;;;;7.30;2.00;;;;;;;23.16;50.43;99670.09;5075734;28;20445;-67
2022/07/08 04:31:22;;;;;;;3.90;1.73;;;;;;;23.08;50.67;99664.88;5075275;28;20115;-66
2022/07/08 04:33:47;;;;;;;3.92;1.65;;;;;;;23.15;50.40;99664.91;5075442;28;20055;-66
2022/07/08 04:36:13;;;;;;;3.65;1.50;;;;;;;23.40;50.24;99673.38;5075434;28;20111;-66
2022/07/08 04:38:38;;;;;;;3.70;2.13;;;;;;;23.67;49.49;99661.81;5075478;28;20024;-66
2022/07/08 04:41:04;;;;;;;3.60;1.58;;;;;;;23.74;49.31;99671.63;5075428;28;20077;-67
2022/07/08 04:43:29;;;;;;;1.85;1.15;;;;;;;23.73;49.07;99675.34;5075094;28;20032;-65
2022/07/08 04:45:55;;;;;;;4.68;1.73;;;;;;;23.66;49.16;99663.69;5075661;28;20052;-67
2022/07/08 04:48:20;;;;;;;2.85;1.60;;;;;;;23.52;49.64;99678.19;5075117;28;20028;-66
2022/07/08 04:50:46;;;;;;;3.70;1.95;;;;;;;23.26;49.69;99672.47;5055174;28;20720;-65
2022/07/08 04:53:11;;;;;;;3.63;1.40;;;;;;;23.08;50.03;99670.28;5055378;28;20060;-66
2022/07/08 04:55:37;;;;;;;3.30;1.30;;;;;;;23.10;50.35;99665.53;5055501;28;20502;-66
2022/07/08 04:58:03;;;;;;;1.85;1.20;;;;;;;23.61;49.04;99668.84;5054867;28;20404;-65
2022/07/08 05:00:30;;;;;;;3.35;1.33;;;;;;;24.29;47.93;99673.38;5054867;28;20459;-67
2022/07/08 05:02:56;;;;;;;2.13;1.00;;;;;;;24.78;47.07;99665.00;5054805;28;20040;-65
2022/07/08 05:05:22;;;;;;;3.88;1.33;;;;;;;25.04;46.41;99671.41;5055290;28;20399;-67
2022/07/08 05:07:49;;;;;;;3.33;1.02;;;;;;;25.11;46.17;99667.66;5055035;28;20033;-66
2022/07/08 05:10:16;;;;;;;2.97;1.10;;;;;;;25.18;45.78;99669.50;5055022;28;20037;-66
2022/07/08 05:12:42;;;;;;;2.45;1.15;;;;;;;25.20;46.16;99664.69;5054962;28;20158;-67
2022/07/08 05:15:08;;;;;;;3.63;1.17;;;;;;;25.39;45.31;99665.66;5055406;28;20473;-65
2022/07/08 05:17:34;;;;;;;2.45;1.20;;;;;;;25.27;45.79;99671.75;5054502;28;20024;-68
2022/07/08 05:19:59;;;;;;;1.92;1.35;;;;;;;25.49;45.55;99663.38;5054308;28;20179;-67
2022/07/08 05:22:25;;;;;;;1.92;0.85;;;;;;;25.55;45.33;99665.19;5054666;28;20025;-65
2022/07/08 05:24:50;;;;;;;1.35;0.77;;;;;;;25.62;45.35;99667.03;5066774;28;20365;-66
2022/07/08 05:27:15;;;;;;;5.47;1.00;;;;;;;25.80;44.81;99667.16;5074566;28;20103;-65
2022/07/08 05:29:41;;;;;;;7.40;1.25;;;;;;;26.03;44.17;99673.88;5074615;28;20055;-67
2022/07/08 05:32:07;;;;;;;2.88;1.05;;;;;;;25.75;44.75;99670.50;5074694;28;20040;-66
2022/07/08 05:34:33;;;;;;;6.68;1.20;;;;;;;25.38;45.26;99678.38;5069898;28;20032;-65
2022/07/08 05:36:58;;;;;;;2.20;0.68;;;;;;;25.24;45.63;99677.59;5062734;28;20040;-68
2022/07/08 05:39:24;;;;;;;7.82;0.90;;;;;;;25.13;45.46;99672.84;5074655;28;20032;-66
2022/07/08 05:41:51;;;;;;;1.88;0.90;;;;;;;25.25;45.50;99673.84;5073893;28;20118;-66
2022/07/08 05:44:17;;;;;;;4.60;0.80;;;;;;;25.82;44.10;99669.63;5074205;28;20028;-65
2022/07/08 05:46:43;;;;;;;3.38;0.75;;;;;;;26.03;43.74;99671.16;5074100;28;20066;-66
2022/07/08 05:49:09;;;;;;;7.03;0.95;;;;;;;25.94;43.60;99670.59;5074300;28;20416;-66
2022/07/08 05:51:34;;;;;;;3.17;0.70;;;;;;;25.70;43.71;99670.34;5074104;28;20067;-68
2022/07/08 05:54:00;;;;;;;1.83;0.88;;;;;;;25.32;44.11;99670.28;5074307;28;20044;-68
2022/07/08 05:56:25;;;;;;;4.60;1.00;;;;;;;24.91;44.95;99673.13;5074110;28;20039;-66
2022/07/08 05:58:51;;;;;;;1.92;0.77;;;;;;;24.76;45.00;99680.66;5073724;28;20044;-67
2022/07/08 06:01:19;;;;;;;3.55;0.60;;;;;;;24.61;45.08;99684.38;5073958;28;20056;-67
2022/07/08 06:03:44;;;;;;;1.55;1.00;;;;;;;24.47;45.32;99696.25;5074146;28;20028;-67
2022/07/08 06:06:10;;;;;;;4.82;0.73;;;;;;;24.19;45.92;99687.28;5073906;28;20090;-66
2022/07/08 06:08:35;;;;;;;1.33;0.70;;;;;;;24.17;46.21;99686.66;5073420;28;20101;-66
2022/07/08 06:11:01;;;;;;;3.40;0.63;;;;;;;24.26;45.59;99684.59;5073702;28;20039;-67
2022/07/08 06:13:27;;;;;;;1.13;0.63;;;;;;;24.18;46.06;99684.81;5073243;28;20066;-67
2022/07/08 06:15:53;;;;;;;0.98;0.50;;;;;;;24.12;46.04;99685.63;5073617;28;20428;-66
2022/07/08 06:18:18;;;;;;;0.90;0.60;;;;;;;24.17;45.55;99694.78;5073424;28;20099;-67
2022/07/08 06:20:44;;;;;;;0.52;0.40;;;;;;;24.19;45.67;99689.19;5073486;28;20052;-67
2022/07/08 06:23:09;;;;;;;1.08;0.65;;;;;;;24.32;45.67;99696.44;5073685;28;20035;-66
2022/07/08 06:25:35;;;;;;;0.75;0.40;;;;;;;24.53;45.21;99698.09;5072135;28;20068;-66
2022/07/08 06:28:00;;;;;;;0.40;0.40;;;;;;;24.56;45.16;99696.88;5073232;28;20036;-66
2022/07/08 06:30:26;;;;;;;4.82;1.45;;;;;;;24.56;44.58;99703.09;5073120;28;20032;-66
2022/07/08 06:32:52;;;;;;;3.60;0.60;;;;;;;24.40;44.83;99704.38;5073389;28;20166;-68
2022/07/08 06:35:17;;;;;;;2.47;0.77;;;;;;;24.28;44.95;99701.44;5073307;28;20044;-70
2022/07/08 06:37:43;;;;;;;2.13;0.40;;;;;;;24.30;45.23;99701.22;5072221;28;20430;-67
2022/07/08 06:40:09;;;;;;;1.83;0.50;;;;;;;24.44;45.32;99705.59;5073088;28;20040;-68
2022/07/08 06:42:34;;;;;;;4.53;0.80;;;;;;;24.47;44.77;99713.31;5073007;28;20059;-68
2022/07/08 06:45:00;;;;;;;4.18;0.70;;;;;;;24.47;45.02;99707.88;5072410;28;20479;-66
2022/07/08 06:47:25;;;;;;;2.22;0.77;;;;;;;24.57;44.77;99698.50;5072591;28;20075;-68
2022/07/08 06:49:52;;;;;;;0.80;0.55;;;;;;;24.58;44.93;99706.44;5072717;28;20036;-66
2022/07/08 06:52:18;;;;;;;2.92;0.45;;;;;;;24.68;44.21;99703.31;5072402;28;20039;-67
2022/07/08 06:54:43;;;;;;;3.95;0.57;;;;;;;24.74;44.37;99705.19;5072339;28;20036;-67
2022/07/08 06:57:09;;;;;;;2.25;0.43;;;;;;;24.78;43.37;99716.41;5072886;28;20075;-68
2022/07/08 06:59:35;;;;;;;0.85;0.52;;;;;;;24.49;43.89;99710.38;5070506;28;20040;-67
2022/07/08 07:02:01;;;;;;;2.45;0.80;;;;;;;24.18;44.28;99709.97;5072366;28;20521;-66
2022/07/08 07:04:27;;;;;;;1.35;0.50;;;;;;;24.04;44.71;99714.50;5072553;28;20040;-66
2022/07/08 07:06:53;;;;;;;3.08;0.90;;;;;;;23.89;44.81;99709.25;5072487;28;20045;-69
2022/07/08 07:09:19;;;;;;;3.92;1.50;;;;;;;23.90;45.21;99705.50;5072089;28;20045;-65
2022/07/08 07:11:44;;;;;;;4.55;1.10;;;;;;;23.93;45.39;99705.09;5071771;28;20040;-67
2022/07/08 07:14:13;;;;;;;3.00;0.95;;;;;;;23.98;44.97;99695.56;5071799;28;20031;-67
2022/07/08 07:16:38;;;;;;;11.98;1.30;;;;;;;23.98;45.55;99700.97;5072562;28;20071;-65
2022/07/08 07:19:04;;;;;;;4.13;1.10;;;;;;;23.99;45.57;99700.78;5072450;28;20068;-67
2022/07/08 07:21:29;;;;;;;1.88;0.70;;;;;;;23.97;45.36;99707.44;5072703;28;20058;-67
2022/07/08 07:23:55;;;;;;;3.17;0.77;;;;;;;23.82;44.93;99703.00;5072570;28;20082;-67
2022/07/08 07:26:21;;;;;;;2.15;0.60;;;;;;;23.61;45.18;99706.66;5072625;28;20492;-67
2022/07/08 07:28:46;;;;;;;1.63;0.63;;;;;;;23.56;45.29;99704.56;5072689;28;20491;-66
2022/07/08 07:31:12;;;;;;;1.02;0.70;;;;;;;23.54;44.79;99703.13;5072800;28;20029;-67
2022/07/08 07:33:37;;;;;;;3.25;1.00;;;;;;;23.59;44.94;99703.34;5072650;28;20039;-68
2022/07/08 07:36:03;;;;;;;1.58;0.70;;;;;;;23.68;44.81;99701.28;5072392;28;20028;-68
2022/07/08 07:38:29;;;;;;;1.83;0.85;;;;;;;23.72;45.08;99703.41;5071999;28;20404;-67
2022/07/08 07:40:54;;;;;;;2.88;1.02;;;;;;;23.59;44.76;99706.06;5070923;28;20041;-67
2022/07/08 07:43:20;;;;;;;4.40;0.70;;;;;;;23.52;45.47;99707.88;5072466;28;20032;-68
2022/07/08 07:45:45;;;;;;;0.82;0.70;;;;;;;23.36;45.58;99718.00;5072552;28;20476;-69
2022/07/08 07:48:11;;;;;;;4.13;1.00;;;;;;;23.25;45.56;99715.88;5072216;28;20036;-67
2022/07/08 07:50:36;;;;;;;2.22;1.15;;;;;;;23.23;45.73;99713.38;5072548;28;20041;-68
2022/07/08 07:53:02;;;;;;;1.48;0.90;;;;;;;23.20;45.79;99719.16;5072097;28;20119;-67
2022/07/08 07:55:27;;;;;;;3.17;0.90;;;;;;;23.08;45.79;99716.16;5072471;28;20024;-66
2022/07/08 07:57:53;;;;;;;11.93;1.40;;;;;;;23.13;46.29;99712.84;5072068;28;20487;-67
2022/07/08 08:00:18;;;;;;;4.28;1.20;;;;;;;23.26;45.95;99714.84;5072106;28;20059;-67
2022/07/08 08:02:44;;;;;;;1.95;0.70;;;;;;;23.44;45.79;99720.53;5052263;28;20033;-67
2022/07/08 08:05:11;;;;;;;2.60;1.00;;;;;;;23.60;45.43;99713.94;5052309;28;20049;-67
2022/07/08 08:07:38;;;;;;;2.00;1.27;;;;;;;23.44;45.98;99712.44;5052135;28;20087;-67
2022/07/08 08:10:04;;;;;;;2.08;1.00;;;;;;;23.36;45.97;99718.00;5052176;28;20078;-68
2022/07/08 08:12:29;;;;;;;1.63;0.82;;;;;;;23.27;45.80;99717.31;5052670;28;20455;-69
2022/07/08 08:14:55;;;;;;;1.58;0.63;;;;;;;23.24;45.96;99715.03;5052724;28;20033;-68
2022/07/08 08:17:20;;;;;;;2.58;0.90;;;;;;;23.30;45.88;99710.72;5059559;28;20032;-68
2022/07/08 08:19:46;;;;;;;3.85;1.05;;;;;;;23.45;45.79;99719.47;5071628;28;20429;-67
2022/07/08 08:22:11;;;;;;;1.05;0.63;;;;;;;23.54;45.62;99706.63;5072160;28;20081;-68
2022/07/08 08:24:37;;;;;;;1.58;0.80;;;;;;;23.60;45.31;99710.44;5063418;28;20048;-67
2022/07/08 08:27:02;;;;;;;1.60;1.02;;;;;;;23.58;45.42;99707.91;5052103;28;20044;-67
2022/07/08 08:29:28;;;;;;;1.70;0.77;;;;;;;23.59;45.68;99706.06;5050256;28;20041;-67
2022/07/08 08:31:53;;;;;;;2.72;1.25;;;;;;;23.59;45.63;99714.16;5051759;28;20067;-67
2022/07/08 08:34:19;;;;;;;6.90;0.80;;;;;;;23.62;45.69;99709.19;5051640;28;20041;-67
2022/07/08 08:36:44;;;;;;;5.22;1.70;;;;;;;23.72;45.46;99716.06;5055183;28;20037;-67
2022/07/08 08:39:10;;;;;;;5.40;1.25;;;;;;;23.55;45.42;99708.31;5055521;28;20029;-68
2022/07/08 08:41:36;;;;;;;3.22;0.93;;;;;;;23.37;45.87;99711.56;5055602;28;20043;-68
2022/07/08 08:44:02;;;;;;;1.45;0.73;;;;;;;23.25;45.90;99703.19;5055310;28;20041;-68
2022/07/08 08:46:31;;;;;;;5.25;1.38;;;;;;;23.39;45.88;99712.19;5055212;28;20043;-68
2022/07/08 08:48:56;;;;;;;4.97;1.10;;;;;;;23.47;45.71;99714.72;5059823;28;20032;-68
2022/07/08 08:51:23;;;;;;;1.80;0.90;;;;;;;23.36;45.38;99712.59;5075410;28;20087;-68
2022/07/08 08:53:49;;;;;;;1.20;0.80;;;;;;;23.31;45.83;99712.34;5074975;28;20039;-67
2022/07/08 08:56:16;;;;;;;2.92;1.38;;;;;;;23.40;45.49;99711.16;5075326;28;20036;-67
2022/07/08 08:58:47;;;;;;;2.53;1.75;;;;;;;23.38;45.41;99715.94;5075195;28;20051;-68
2022/07/08 09:01:16;;;;;;;3.22;1.38;;;;;;;23.39;45.50;99720.31;5075193;28;20024;-68
2022/07/08 09:03:43;;;;;;;1.67;0.80;;;;;;;23.51;45.70;99727.81;5074897;28;20071;-68
2022/07/08 09:06:08;;;;;;;2.97;0.70;;;;;;;23.67;45.17;99729.34;5075053;28;20087;-69
2022/07/08 09:08:35;;;;;;;1.80;0.80;;;;;;;23.80;45.09;99721.28;5073451;28;20579;-67
2022/07/08 09:11:01;;;;;;;3.88;0.90;;;;;;;23.80;44.81;99718.59;5075124;28;20032;-68
2022/07/08 09:13:26;;;;;;;3.03;0.90;;;;;;;23.78;45.46;99724.19;5074456;28;20445;-67
2022/07/08 09:15:59;;;;;;;2.40;1.15;;;;;;;23.69;45.79;99725.41;5074523;28;20032;-69
2022/07/08 09:18:34;;;;;;;1.92;0.95;;;;;;;23.62;45.40;99725.38;5074302;28;20504;-68
2022/07/08 09:21:01;;;;;;;2.38;1.05;;;;;;;23.49;45.81;99729.88;5074727;28;20089;-68
2022/07/08 09:23:29;;;;;;;2.20;1.40;;;;;;;23.52;45.78;99724.09;5075155;28;20028;-69
2022/07/08 09:25:59;;;;;;;4.80;1.27;;;;;;;23.32;45.77;99724.81;5074901;28;20381;-69
2022/07/08 09:28:27;;;;;;;5.47;1.42;;;;;;;23.11;45.77;99723.88;5074644;28;20442;-68
2022/07/08 09:30:57;;;;;;;1.85;1.25;;;;;;;22.89;46.10;99725.81;5074540;28;20028;-67
2022/07/08 09:33:27;;;;;;;3.70;1.50;;;;;;;22.75;46.22;99726.75;5074760;28;20028;-68
2022/07/08 09:35:54;;;;;;;3.10;1.20;;;;;;;22.83;46.17;99730.13;5074377;28;20043;-68
2022/07/08 09:38:20;;;;;;;3.13;1.10;;;;;;;23.02;45.87;99731.28;5074367;28;20028;-68
2022/07/08 09:41:09;;;;;;;4.28;1.17;;;;;;;23.24;45.71;99728.50;5074478;28;20036;-67
2022/07/08 09:43:48;;;;;;;2.08;0.70;;;;;;;23.46;45.56;99734.66;5074298;28;20036;-68
2022/07/08 09:46:13;;;;;;;1.70;0.93;;;;;;;23.62;45.26;99730.78;5073344;28;20058;-66
2022/07/08 09:48:39;;;;;;;2.75;1.02;;;;;;;23.75;44.66;99724.56;5073764;28;20041;-68
2022/07/08 09:51:08;;;;;;;2.10;0.90;;;;;;;23.83;44.51;99725.44;5074189;28;20081;-68
2022/07/08 09:53:35;;;;;;;2.10;1.05;;;;;;;23.91;44.23;99719.84;5074374;28;20045;-68
2022/07/08 09:56:01;;;;;;;3.50;1.17;;;;;;;23.87;44.38;99719.44;5073888;28;20041;-69
2022/07/08 09:58:28;;;;;;;2.17;0.80;;;;;;;23.93;44.54;99707.81;5073745;28;20515;-68
2022/07/08 10:00:55;;;;;;;3.92;0.70;;;;;;;23.97;44.10;99710.97;5074157;28;20078;-68
2022/07/08 10:03:23;;;;;;;5.80;0.93;;;;;;;24.00;44.23;99717.81;5073660;28;20032;-68
2022/07/08 10:05:50;;;;;;;1.73;0.95;;;;;;;23.99;44.39;99716.16;5073515;28;20049;-67
2022/07/08 10:08:17;;;;;;;2.70;0.98;;;;;;;23.93;43.59;99713.22;5073639;28;20115;-68
2022/07/08 10:10:45;;;;;;;3.15;1.10;;;;;;;23.74;43.87;99712.13;5073653;28;20403;-68
2022/07/08 10:13:11;;;;;;;2.95;1.02;;;;;;;23.55;43.98;99708.31;5073478;28;20142;-68
2022/07/08 10:15:37;;;;;;;5.55;1.15;;;;;;;23.52;44.32;99697.09;5073953;28;20066;-68
2022/07/08 10:18:16;;;;;;;2.65;0.93;;;;;;;23.51;44.14;99700.81;5073405;28;20081;-68
2022/07/08 10:20:49;;;;;;;2.47;1.10;;;;;;;23.62;44.10;99711.03;5072581;28;20032;-69
2022/07/08 10:23:29;;;;;;;3.45;1.00;;;;;;;23.78;44.05;99707.97;5073379;28;20039;-68
2022/07/08 10:25:58;;;;;;;2.83;1.73;;;;;;;23.88;43.63;99706.75;5073565;28;20029;-68
2022/07/08 10:28:42;;;;;;;2.33;0.93;;;;;;;23.80;43.59;99709.63;5073267;28;20024;-69
2022/07/08 10:31:19;;;;;;;3.35;1.30;;;;;;;23.58;42.97;99704.38;5073160;28;20028;-68
2022/07/08 10:33:45;;;;;;;1.17;0.93;;;;;;;23.49;43.46;99697.47;5072828;28;20040;-66
2022/07/08 10:36:11;;;;;;;2.65;1.10;;;;;;;23.52;43.51;99699.78;5073013;28;20036;-69
2022/07/08 10:38:38;;;;;;;2.30;0.60;;;;;;;23.53;43.75;99699.56;5073612;28;20020;-68
2022/07/08 10:41:06;;;;;;;3.85;1.15;;;;;;;23.66;43.76;99706.06;5073007;28;20035;-69
2022/07/08 10:43:32;;;;;;;3.03;1.30;;;;;;;23.72;42.99;99703.41;5073327;28;20050;-68
2022/07/08 10:46:12;;;;;;;1.50;0.90;;;;;;;23.74;43.08;99701.31;5073027;28;20055;-69
2022/07/08 10:48:40;;;;;;;2.83;1.00;;;;;;;23.64;43.32;99695.47;5073175;28;20493;-69
2022/07/08 10:51:29;;;;;;;1.85;1.23;;;;;;;23.57;43.16;99702.72;5073449;28;20489;-68
2022/07/08 10:54:01;;;;;;;2.10;1.40;;;;;;;23.50;43.30;99693.75;5066101;28;20039;-68
2022/07/08 10:56:49;;;;;;;1.38;0.93;;;;;;;23.53;43.88;99691.47;5073047;28;20083;-67
2022/07/08 10:59:22;;;;;;;4.88;0.95;;;;;;;23.60;43.61;99688.81;5072690;28;20081;-67
2022/07/08 11:02:09;;;;;;;2.75;1.00;;;;;;;23.76;43.54;99688.44;5072956;28;20079;-68
2022/07/08 11:04:35;;;;;;;4.07;1.13;;;;;;;23.86;43.63;99692.63;5073052;28;20080;-69
2022/07/08 11:09:54;;;;;;;6.22;1.08;;;;;;;23.85;43.91;99691.78;5072691;28;20040;-68
2022/07/08 11:12:24;;;;;;;1.30;0.95;;;;;;;23.85;43.20;99693.66;5072544;28;20488;-68
2022/07/08 11:14:52;;;;;;;3.63;1.13;;;;;;;23.82;43.39;99694.91;5072797;28;20043;-67
2022/07/08 11:17:25;;;;;;;2.00;0.82;;;;;;;23.89;43.43;99689.50;5072908;28;20396;-68
2022/07/08 11:19:52;;;;;;;2.67;0.80;;;;;;;23.91;43.41;99692.81;5072431;28;20075;-67
2022/07/08 11:22:19;;;;;;;1.20;0.60;;;;;;;23.98;43.20;99685.59;5072682;28;20039;-68
2022/07/08 11:24:46;;;;;;;3.60;0.93;;;;;;;23.97;42.82;99675.81;5072730;28;20036;-68
2022/07/08 11:27:12;;;;;;;1.73;0.90;;;;;;;24.01;42.88;99674.38;5072277;28;20039;-68
2022/07/08 11:29:45;;;;;;;0.85;0.75;;;;;;;24.12;43.25;99670.22;5072532;28;20388;-69
2022/07/08 11:32:11;;;;;;;1.65;0.93;;;;;;;24.20;42.71;99677.28;5072332;28;20082;-69
2022/07/08 11:34:37;;;;;;;3.50;1.35;;;;;;;24.22;42.78;99669.81;5072612;28;20028;-68